Time;durP1;ratioP1;P1;durP2;ratioP2;P2;SDS_P1;SDS_P2;PMS_P1;PMS_P2;Temp;Humidity;BMP_temperature;BMP_pressure;BME280_temperature;BME280_humidity;BME280_pressure;Samples;Min_cycle;Max_cycle;Signal;HPM_P1;HPM_P2
2021/01/17 00:01:09;;;;;;;;;;;23.10;33.10;;;;;;1598395;73;669;-64
2021/01/17 00:03:11;;;;;;;;;;;23.20;33.00;;;;;;1595422;73;1948;-64
2021/01/17 00:05:13;;;;;;;;;;;23.10;33.00;;;;;;1585181;73;680;-64
2021/01/17 00:07:15;;;;;;;;;;;23.20;32.90;;;;;;1568921;74;1107;-64
2021/01/17 00:09:17;;;;;;;;;;;23.20;32.80;;;;;;1566942;74;781;-64
2021/01/17 00:11:19;;;;;;;;;;;23.20;32.80;;;;;;1605333;73;743;-64
2021/01/17 00:13:23;;;;;;;;;;;23.20;32.80;;;;;;1611367;73;782;-64
2021/01/17 00:15:24;;;;;;;;;;;23.20;32.80;;;;;;1595387;73;1629;-64
2021/01/17 00:17:27;;;;;;;;;;;23.20;32.80;;;;;;1590997;73;1121;-64
2021/01/17 00:19:29;;;;;;;;;;;23.20;32.80;;;;;;1597407;74;771;-65
2021/01/17 00:21:31;;;;;;;;;;;23.20;32.80;;;;;;1605769;73;854;-64
2021/01/17 00:23:33;;;;;;;;;;;23.20;32.80;;;;;;1611556;73;1944;-64
2021/01/17 00:25:35;;;;;;;;;;;23.20;32.80;;;;;;1602856;73;672;-64
2021/01/17 00:27:37;;;;;;;;;;;23.20;32.80;;;;;;1599976;73;1155;-63
2021/01/17 00:29:39;;;;;;;;;;;23.20;32.80;;;;;;1583112;73;789;-65
2021/01/17 00:31:41;;;;;;;;;;;23.20;32.80;;;;;;1589370;73;727;-65
2021/01/17 00:33:43;;;;;;;;;;;23.20;32.80;;;;;;1599477;73;744;-64
2021/01/17 00:35:45;;;;;;;;;;;23.20;32.80;;;;;;1605235;73;708;-63
2021/01/17 00:37:47;;;;;;;;;;;23.20;32.80;;;;;;1609149;73;1124;-64
2021/01/17 00:39:49;;;;;;;;;;;23.20;32.80;;;;;;1615641;72;1257;-63
2021/01/17 00:41:51;;;;;;;;;;;23.20;32.80;;;;;;1608847;73;821;-63
2021/01/17 00:43:53;;;;;;;;;;;23.20;32.80;;;;;;1610696;73;1932;-62
2021/01/17 00:45:55;;;;;;;;;;;23.20;32.80;;;;;;1608657;73;752;-64
2021/01/17 00:47:56;;;;;;;;;;;23.20;32.80;;;;;;1618700;72;1105;-64
2021/01/17 00:49:58;;;;;;;;;;;23.20;32.80;;;;;;1626082;72;823;-64
2021/01/17 00:52:00;;;;;;;;;;;23.20;32.80;;;;;;1627233;72;768;-64
2021/01/17 00:54:02;;;;;;;;;;;23.20;32.80;;;;;;1613175;72;775;-64
2021/01/17 00:56:04;;;;;;;;;;;23.20;32.90;;;;;;1623038;72;770;-63
2021/01/17 00:58:06;;;;;;;;;;;23.20;32.90;;;;;;1624499;73;1099;-64
2021/01/17 01:00:12;;;;;;;;;;;23.20;32.90;;;;;;1619631;72;716;-62
2021/01/17 01:02:13;;;;;;;;;;;23.20;33.10;;;;;;1618153;72;842;-65
2021/01/17 01:04:16;;;;;;;;;;;23.20;33.50;;;;;;1614933;72;1934;-62
2021/01/17 01:06:20;;;;;;;;;;;23.00;33.70;;;;;;1626234;72;728;-63
2021/01/17 01:08:22;;;;;;;;;;;23.10;34.20;;;;;;1624260;72;830;-64
2021/01/17 01:10:25;;;;;;;;;;;23.10;34.40;;;;;;1626624;72;774;-63
2021/01/17 01:12:27;;;;;;;;;;;23.00;34.50;;;;;;1623706;72;671;-63
2021/01/17 01:14:29;;;;;;;;;;;23.00;34.50;;;;;;1623964;72;704;-64
2021/01/17 01:16:30;;;;;;;;;;;23.00;34.70;;;;;;1623696;72;1134;-65
2021/01/17 01:18:32;;;;;;;;;;;23.00;34.90;;;;;;1625310;72;698;-64
2021/01/17 01:20:34;;;;;;;;;;;23.00;34.90;;;;;;1626574;72;709;-64
2021/01/17 01:22:38;;;;;;;;;;;23.00;35.00;;;;;;1623694;72;779;-64
2021/01/17 01:24:39;;;;;;;;;;;23.00;35.10;;;;;;1620005;72;1931;-64
2021/01/17 01:26:42;;;;;;;;;;;23.00;35.10;;;;;;1626226;72;1174;-64
2021/01/17 01:28:44;;;;;;;;;;;23.00;35.20;;;;;;1623351;72;724;-65
2021/01/17 01:30:46;;;;;;;;;;;23.00;35.20;;;;;;1627715;72;816;-65
2021/01/17 01:32:51;;;;;;;;;;;23.10;35.50;;;;;;1627506;73;931;-64
2021/01/17 01:34:53;;;;;;;;;;;23.00;35.50;;;;;;1627711;72;756;-64
2021/01/17 01:36:55;;;;;;;;;;;23.00;35.60;;;;;;1622413;72;1123;-64
2021/01/17 01:38:57;;;;;;;;;;;23.00;35.50;;;;;;1627621;72;739;-65
2021/01/17 01:40:59;;;;;;;;;;;23.00;35.40;;;;;;1623754;72;711;-65
2021/01/17 01:43:00;;;;;;;;;;;23.00;35.50;;;;;;1623325;72;729;-64
2021/01/17 01:45:02;;;;;;;;;;;23.00;35.70;;;;;;1621049;72;1931;-64
2021/01/17 01:47:04;;;;;;;;;;;23.00;35.70;;;;;;1625636;72;1135;-62
2021/01/17 01:49:06;;;;;;;;;;;23.00;35.70;;;;;;1624886;72;733;-64
2021/01/17 01:51:08;;;;;;;;;;;23.00;35.80;;;;;;1627813;73;782;-64
2021/01/17 01:53:10;;;;;;;;;;;23.10;36.00;;;;;;1624538;72;701;-64
2021/01/17 01:55:13;;;;;;;;;;;23.10;35.90;;;;;;1618250;72;746;-64
2021/01/17 01:57:14;;;;;;;;;;;23.00;35.80;;;;;;1625411;72;1078;-63
2021/01/17 01:59:16;;;;;;;;;;;23.10;36.00;;;;;;1619664;72;783;-64
2021/01/17 02:01:18;;;;;;;;;;;23.10;35.90;;;;;;1623770;72;706;-64
2021/01/17 02:03:20;;;;;;;;;;;23.10;36.10;;;;;;1621332;72;1936;-64
2021/01/17 02:05:22;;;;;;;;;;;23.10;36.00;;;;;;1624488;73;714;-64
2021/01/17 02:07:41;;;;;;;;;;;23.10;36.10;;;;;;1623495;72;1145;-65
2021/01/17 02:09:43;;;;;;;;;;;23.10;36.20;;;;;;1622919;72;1759;-64
2021/01/17 02:11:49;;;;;;;;;;;23.00;36.00;;;;;;1620764;72;720;-64
2021/01/17 02:13:55;;;;;;;;;;;23.10;36.30;;;;;;1621338;72;1642;-64
2021/01/17 02:15:57;;;;;;;;;;;23.10;36.30;;;;;;1626293;72;1950;-62
2021/01/17 02:18:00;;;;;;;;;;;23.00;36.10;;;;;;1626389;72;1123;-63
2021/01/17 02:20:04;;;;;;;;;;;23.00;36.10;;;;;;1621934;72;1012;-64
2021/01/17 02:22:06;;;;;;;;;;;23.00;36.20;;;;;;1626236;72;754;-64
2021/01/17 02:24:11;;;;;;;;;;;23.00;36.20;;;;;;1627025;72;1932;-63
2021/01/17 02:26:13;;;;;;;;;;;23.10;36.40;;;;;;1627524;72;717;-64
2021/01/17 02:28:15;;;;;;;;;;;23.00;36.30;;;;;;1583679;73;1041;-64
2021/01/17 02:30:18;;;;;;;;;;;23.00;36.30;;;;;;1622183;72;793;-64
2021/01/17 02:32:19;;;;;;;;;;;23.10;36.50;;;;;;1619230;72;727;-63
2021/01/17 02:34:21;;;;;;;;;;;23.10;36.30;;;;;;1626631;72;712;-63
2021/01/17 02:36:25;;;;;;;;;;;23.10;36.40;;;;;;1627355;72;1130;-64
2021/01/17 02:38:40;;;;;;;;;;;23.10;36.40;;;;;;1621803;72;703;-63
2021/01/17 02:41:00;;;;;;;;;;;23.10;36.40;;;;;;1622905;73;694;-63
2021/01/17 02:43:02;;;;;;;;;;;23.00;36.30;;;;;;1620026;73;748;-63
2021/01/17 02:45:05;;;;;;;;;;;23.00;36.50;;;;;;1627547;73;1939;-64
2021/01/17 02:47:07;;;;;;;;;;;23.10;36.60;;;;;;1626023;73;1138;-64
2021/01/17 02:49:08;;;;;;;;;;;23.10;36.50;;;;;;1623719;72;738;-64
2021/01/17 02:51:10;;;;;;;;;;;23.10;36.80;;;;;;1620318;72;781;-65
2021/01/17 02:53:16;;;;;;;;;;;23.00;36.70;;;;;;1621594;72;695;-64
2021/01/17 02:55:18;;;;;;;;;;;23.10;36.80;;;;;;1621990;72;836;-64
2021/01/17 02:57:19;;;;;;;;;;;23.10;36.80;;;;;;1626303;72;1154;-65
2021/01/17 02:59:22;;;;;;;;;;;23.10;37.00;;;;;;1619487;72;764;-63
2021/01/17 03:01:24;;;;;;;;;;;23.10;36.80;;;;;;1622310;72;650;-64
2021/01/17 03:03:27;;;;;;;;;;;23.00;36.90;;;;;;1617314;72;723;-64
2021/01/17 03:05:29;;;;;;;;;;;23.00;37.20;;;;;;1623013;72;1916;-64
2021/01/17 03:07:31;;;;;;;;;;;22.90;37.10;;;;;;1626525;72;1248;-64
2021/01/17 03:09:33;;;;;;;;;;;23.00;37.30;;;;;;1576187;73;723;-64
2021/01/17 03:11:35;;;;;;;;;;;23.00;37.20;;;;;;1626020;73;769;-65
2021/01/17 03:13:37;;;;;;;;;;;22.90;37.30;;;;;;1616534;73;901;-64
2021/01/17 03:15:39;;;;;;;;;;;22.90;37.30;;;;;;1620705;72;689;-63
2021/01/17 03:17:41;;;;;;;;;;;23.00;37.40;;;;;;1625323;72;1154;-64
2021/01/17 03:19:43;;;;;;;;;;;22.90;37.40;;;;;;1614715;72;777;-63
2021/01/17 03:21:45;;;;;;;;;;;23.00;37.30;;;;;;1621705;72;712;-63
2021/01/17 03:23:47;;;;;;;;;;;23.00;37.30;;;;;;1617239;73;842;-63
2021/01/17 03:25:48;;;;;;;;;;;22.90;37.30;;;;;;1627511;72;1934;-64
2021/01/17 03:27:50;;;;;;;;;;;23.00;37.20;;;;;;1609008;72;1136;-64
2021/01/17 03:29:52;;;;;;;;;;;22.90;37.50;;;;;;1620932;73;720;-64
2021/01/17 03:31:54;;;;;;;;;;;23.00;37.40;;;;;;1619550;72;1107;-64
2021/01/17 03:33:56;;;;;;;;;;;23.00;37.50;;;;;;1619642;72;713;-63
2021/01/17 03:35:58;;;;;;;;;;;23.00;37.60;;;;;;1616557;72;727;-64
2021/01/17 03:38:00;;;;;;;;;;;22.90;37.70;;;;;;1625989;72;1072;-64
2021/01/17 03:40:03;;;;;;;;;;;23.00;37.60;;;;;;1629456;72;837;-64
2021/01/17 03:42:05;;;;;;;;;;;23.00;37.60;;;;;;1627405;72;770;-64
2021/01/17 03:44:07;;;;;;;;;;;23.00;37.80;;;;;;1612341;72;1928;-63
2021/01/17 03:46:09;;;;;;;;;;;23.00;37.70;;;;;;1612074;72;708;-63
2021/01/17 03:48:10;;;;;;;;;;;23.00;37.80;;;;;;1625102;72;1111;-63
2021/01/17 03:50:12;;;;;;;;;;;23.00;37.90;;;;;;1624902;72;710;-65
2021/01/17 03:52:14;;;;;;;;;;;22.90;38.10;;;;;;1624093;72;724;-65
2021/01/17 03:54:16;;;;;;;;;;;22.90;38.10;;;;;;1609644;73;1049;-65
2021/01/17 03:56:18;;;;;;;;;;;22.90;38.50;;;;;;1623665;73;707;-65
2021/01/17 03:58:20;;;;;;;;;;;22.80;38.30;;;;;;1620864;72;661;-64
2021/01/17 04:00:22;;;;;;;;;;;22.90;38.40;;;;;;1610221;72;1164;-65
2021/01/17 04:02:24;;;;;;;;;;;22.90;38.40;;;;;;1620790;72;623;-64
2021/01/17 04:04:26;;;;;;;;;;;22.90;38.50;;;;;;1624003;73;1932;-63
2021/01/17 04:06:27;;;;;;;;;;;22.90;38.40;;;;;;1619647;73;1126;-63
2021/01/17 04:08:29;;;;;;;;;;;22.90;38.50;;;;;;1625753;72;704;-64
2021/01/17 04:10:31;;;;;;;;;;;22.90;38.50;;;;;;1627431;72;806;-64
2021/01/17 04:12:34;;;;;;;;;;;22.90;38.60;;;;;;1622809;72;918;-65
2021/01/17 04:14:36;;;;;;;;;;;22.90;38.70;;;;;;1622820;72;759;-64
2021/01/17 04:16:38;;;;;;;;;;;22.80;38.50;;;;;;1623924;72;1171;-63
2021/01/17 04:18:40;;;;;;;;;;;22.90;38.70;;;;;;1611500;72;711;-64
2021/01/17 04:20:42;;;;;;;;;;;22.90;38.70;;;;;;1618100;72;740;-64
2021/01/17 04:22:44;;;;;;;;;;;22.80;38.80;;;;;;1621079;72;1095;-63
2021/01/17 04:24:46;;;;;;;;;;;22.70;39.10;;;;;;1617792;72;1925;-64
2021/01/17 04:26:48;;;;;;;;;;;22.80;39.00;;;;;;1621076;72;1167;-65
2021/01/17 04:28:50;;;;;;;;;;;22.70;39.20;;;;;;1612176;73;660;-65
2021/01/17 04:30:52;;;;;;;;;;;22.70;39.20;;;;;;1613323;73;672;-64
2021/01/17 04:32:54;;;;;;;;;;;22.70;39.10;;;;;;1610619;72;761;-65
2021/01/17 04:34:55;;;;;;;;;;;22.80;39.00;;;;;;1604304;72;711;-65
2021/01/17 04:36:57;;;;;;;;;;;22.80;39.00;;;;;;1621251;72;1141;-64
2021/01/17 04:38:59;;;;;;;;;;;22.90;38.90;;;;;;1620930;72;1073;-64
2021/01/17 04:41:02;;;;;;;;;;;22.90;38.90;;;;;;1620861;72;777;-64
2021/01/17 04:43:05;;;;;;;;;;;22.80;38.70;;;;;;1618109;72;716;-64
2021/01/17 04:45:08;;;;;;;;;;;22.80;38.70;;;;;;1610501;72;1952;-64
2021/01/17 04:47:10;;;;;;;;;;;22.80;38.70;;;;;;1613395;72;1207;-63
2021/01/17 04:49:12;;;;;;;;;;;22.80;38.80;;;;;;1608056;72;686;-63
2021/01/17 04:51:14;;;;;;;;;;;22.80;38.80;;;;;;1618670;72;704;-64
2021/01/17 04:53:16;;;;;;;;;;;22.90;38.80;;;;;;1617969;72;686;-64
2021/01/17 04:55:17;;;;;;;;;;;22.90;38.90;;;;;;1580882;73;812;-64
2021/01/17 04:57:36;;;;;;;;;;;22.80;38.90;;;;;;1592513;73;1447;-64
2021/01/17 04:59:47;;;;;;;;;;;22.80;39.00;;;;;;1605217;72;1047;-65
2021/01/17 05:01:51;;;;;;;;;;;22.80;39.10;;;;;;1611210;72;821;-64
2021/01/17 05:03:53;;;;;;;;;;;22.80;39.30;;;;;;1605131;72;724;-64
2021/01/17 05:06:02;;;;;;;;;;;22.80;39.30;;;;;;1626032;72;1948;-62
2021/01/17 05:08:06;;;;;;;;;;;22.70;39.30;;;;;;1623283;72;1083;-63
2021/01/17 05:10:10;;;;;;;;;;;22.80;39.30;;;;;;1610256;72;723;-63
2021/01/17 05:12:12;;;;;;;;;;;22.70;39.40;;;;;;1604334;72;763;-63
2021/01/17 05:14:33;;;;;;;;;;;22.70;39.40;;;;;;1626716;72;645;-64
2021/01/17 05:16:36;;;;;;;;;;;22.70;39.40;;;;;;1633267;72;1204;-63
2021/01/17 05:18:38;;;;;;;;;;;22.80;39.40;;;;;;1610146;72;693;-63
2021/01/17 05:20:40;;;;;;;;;;;22.80;39.40;;;;;;1643173;72;708;-64
2021/01/17 05:22:43;;;;;;;;;;;22.70;39.40;;;;;;1610886;72;618;-65
2021/01/17 05:24:45;;;;;;;;;;;22.80;39.50;;;;;;1636382;72;1924;-64
2021/01/17 05:26:52;;;;;;;;;;;22.80;39.40;;;;;;1612867;72;1164;-65
2021/01/17 05:28:54;;;;;;;;;;;22.90;39.20;;;;;;1622379;72;1695;-65
2021/01/17 05:30:56;;;;;;;;;;;23.00;39.10;;;;;;1602232;72;680;-65
2021/01/17 05:32:58;;;;;;;;;;;23.00;39.00;;;;;;1607870;72;734;-64
2021/01/17 05:35:00;;;;;;;;;;;23.00;38.90;;;;;;1626606;72;806;-63
2021/01/17 05:37:05;;;;;;;;;;;23.00;38.90;;;;;;1623930;72;1165;-65
2021/01/17 05:39:07;;;;;;;;;;;23.00;38.80;;;;;;1614381;72;749;-65
2021/01/17 05:41:24;;;;;;;;;;;23.00;38.20;;;;;;1622992;72;695;-65
2021/01/17 05:43:26;;;;;;;;;;;23.00;37.80;;;;;;1616262;72;773;-65
2021/01/17 05:45:28;;;;;;;;;;;22.90;37.80;;;;;;1616386;72;1933;-64
2021/01/17 05:47:30;;;;;;;;;;;22.80;37.40;;;;;;1627837;72;1135;-64
2021/01/17 05:49:32;;;;;;;;;;;22.90;37.50;;;;;;1613255;72;784;-65
2021/01/17 05:51:34;;;;;;;;;;;22.90;37.30;;;;;;1607609;72;770;-64
2021/01/17 05:53:36;;;;;;;;;;;22.80;37.30;;;;;;1627141;72;788;-65
2021/01/17 05:55:38;;;;;;;;;;;22.80;37.20;;;;;;1623373;72;697;-65
2021/01/17 05:57:40;;;;;;;;;;;22.70;37.20;;;;;;1611992;72;1136;-62
2021/01/17 05:59:42;;;;;;;;;;;22.80;37.50;;;;;;1615906;72;907;-63
2021/01/17 06:01:44;;;;;;;;;;;22.70;37.40;;;;;;1621564;72;763;-64
2021/01/17 06:03:50;;;;;;;;;;;22.80;37.40;;;;;;1620667;72;785;-63
2021/01/17 06:05:53;;;;;;;;;;;22.80;37.30;;;;;;1623049;72;1943;-62
2021/01/17 06:07:55;;;;;;;;;;;22.90;37.40;;;;;;1594398;73;1602;-63
2021/01/17 06:10:04;;;;;;;;;;;22.90;37.10;;;;;;1611768;72;700;-63
2021/01/17 06:12:06;;;;;;;;;;;23.00;37.10;;;;;;1600467;72;704;-63
2021/01/17 06:14:08;;;;;;;;;;;22.90;36.80;;;;;;1613476;72;851;-63
2021/01/17 06:16:28;;;;;;;;;;;22.90;36.80;;;;;;1623502;72;805;-63
2021/01/17 06:18:30;;;;;;;;;;;22.90;36.80;;;;;;1626451;72;734;-63
2021/01/17 06:20:32;;;;;;;;;;;22.90;36.80;;;;;;1610105;73;802;-64
2021/01/17 06:22:35;;;;;;;;;;;22.90;36.90;;;;;;1631530;72;730;-63
2021/01/17 06:24:40;;;;;;;;;;;22.80;36.70;;;;;;1624829;72;796;-63
2021/01/17 06:26:42;;;;;;;;;;;22.80;36.80;;;;;;1610164;72;1928;-63
2021/01/17 06:28:44;;;;;;;;;;;22.70;36.80;;;;;;1622406;72;697;-63
2021/01/17 06:30:46;;;;;;;;;;;22.80;36.70;;;;;;1612425;72;684;-63
2021/01/17 06:32:48;;;;;;;;;;;22.80;36.90;;;;;;1616831;72;782;-64
2021/01/17 06:34:50;;;;;;;;;;;22.70;36.80;;;;;;1624278;72;795;-63
2021/01/17 06:36:52;;;;;;;;;;;22.70;36.70;;;;;;1620959;72;1154;-64
2021/01/17 06:38:54;;;;;;;;;;;22.70;36.70;;;;;;1628080;72;694;-63
2021/01/17 06:40:57;;;;;;;;;;;22.70;36.70;;;;;;1620002;72;661;-63
2021/01/17 06:42:59;;;;;;;;;;;22.70;36.70;;;;;;1632476;72;982;-64
2021/01/17 06:45:01;;;;;;;;;;;22.70;36.70;;;;;;1634345;72;1952;-63
2021/01/17 06:47:03;;;;;;;;;;;22.70;36.70;;;;;;1638835;72;1134;-63
2021/01/17 06:49:17;;;;;;;;;;;22.70;36.60;;;;;;1627570;73;722;-63
2021/01/17 06:51:20;;;;;;;;;;;22.70;36.60;;;;;;1624871;72;719;-63
2021/01/17 06:53:23;;;;;;;;;;;22.70;36.60;;;;;;1623816;72;777;-63
2021/01/17 06:55:24;;;;;;;;;;;22.70;36.70;;;;;;1611198;73;803;-64
2021/01/17 06:57:28;;;;;;;;;;;22.70;36.60;;;;;;1618347;72;1134;-64
2021/01/17 06:59:30;;;;;;;;;;;22.70;36.70;;;;;;1627303;72;1790;-65
2021/01/17 07:01:32;;;;;;;;;;;22.80;36.60;;;;;;1628029;72;736;-65
2021/01/17 07:03:36;;;;;;;;;;;22.80;36.60;;;;;;1627094;73;711;-64
2021/01/17 07:05:42;;;;;;;;;;;22.80;36.50;;;;;;1617768;72;1947;-61
2021/01/17 07:08:03;;;;;;;;;;;22.80;36.60;;;;;;1625698;72;1151;-64
2021/01/17 07:10:05;;;;;;;;;;;22.90;36.70;;;;;;1627282;72;763;-64
2021/01/17 07:12:08;;;;;;;;;;;22.80;36.60;;;;;;1622923;72;714;-64
2021/01/17 07:14:10;;;;;;;;;;;22.80;36.60;;;;;;1608706;72;807;-64
2021/01/17 07:16:12;;;;;;;;;;;22.80;36.70;;;;;;1619383;72;738;-64
2021/01/17 07:18:14;;;;;;;;;;;22.80;36.50;;;;;;1639417;72;1028;-64
2021/01/17 07:20:16;;;;;;;;;;;22.80;36.50;;;;;;1621188;72;754;-64
2021/01/17 07:22:18;;;;;;;;;;;22.80;36.40;;;;;;1637802;72;734;-63
2021/01/17 07:24:20;;;;;;;;;;;22.80;36.60;;;;;;1613336;72;779;-63
2021/01/17 07:26:23;;;;;;;;;;;22.80;36.60;;;;;;1627866;72;1917;-62
2021/01/17 07:28:25;;;;;;;;;;;22.80;36.50;;;;;;1624751;72;745;-64
2021/01/17 07:30:32;;;;;;;;;;;22.80;36.50;;;;;;1627406;72;777;-63
2021/01/17 07:32:34;;;;;;;;;;;22.80;36.30;;;;;;1609935;72;1738;-63
2021/01/17 07:34:36;;;;;;;;;;;22.80;36.40;;;;;;1612706;72;712;-64
2021/01/17 07:36:42;;;;;;;;;;;22.80;36.30;;;;;;1618782;72;1193;-63
2021/01/17 07:38:45;;;;;;;;;;;22.80;36.30;;;;;;1626611;72;1120;-64
2021/01/17 07:40:52;;;;;;;;;;;22.80;36.30;;;;;;1627220;72;764;-63
2021/01/17 07:42:55;;;;;;;;;;;22.80;36.20;;;;;;1622080;72;687;-64
2021/01/17 07:44:57;;;;;;;;;;;22.80;36.30;;;;;;1623722;72;706;-63
2021/01/17 07:47:01;;;;;;;;;;;22.70;36.30;;;;;;1616840;72;1932;-64
2021/01/17 07:49:03;;;;;;;;;;;22.80;36.30;;;;;;1619225;72;2067;-64
2021/01/17 07:51:05;;;;;;;;;;;22.80;36.20;;;;;;1625319;73;956;-64
2021/01/17 07:53:09;;;;;;;;;;;22.80;36.30;;;;;;1627181;72;712;-63
2021/01/17 07:55:11;;;;;;;;;;;22.80;36.40;;;;;;1623186;72;771;-64
2021/01/17 07:57:13;;;;;;;;;;;22.80;36.30;;;;;;1625258;72;1170;-63
2021/01/17 07:59:15;;;;;;;;;;;22.80;36.20;;;;;;1613104;72;743;-61
2021/01/17 08:01:40;;;;;;;;;;;22.80;36.30;;;;;;1610906;72;706;-63
2021/01/17 08:03:42;;;;;;;;;;;22.80;36.30;;;;;;1626425;72;704;-63
2021/01/17 08:05:51;;;;;;;;;;;22.80;36.30;;;;;;1626755;73;1931;-62
2021/01/17 08:07:53;;;;;;;;;;;22.80;36.30;;;;;;1620003;72;1093;-64
2021/01/17 08:09:55;;;;;;;;;;;22.80;36.30;;;;;;1615170;72;761;-63
2021/01/17 08:11:57;;;;;;;;;;;22.80;36.40;;;;;;1620050;72;710;-64
2021/01/17 08:13:59;;;;;;;;;;;22.80;36.40;;;;;;1603740;72;735;-63
2021/01/17 08:16:09;;;;;;;;;;;22.80;36.30;;;;;;1632304;72;793;-64
2021/01/17 08:18:13;;;;;;;;;;;22.80;36.30;;;;;;1628485;72;1094;-64
2021/01/17 08:20:21;;;;;;;;;;;22.80;36.50;;;;;;1595523;73;1203;-65
2021/01/17 08:22:24;;;;;;;;;;;22.80;36.80;;;;;;1569106;74;895;-64
2021/01/17 08:24:26;;;;;;;;;;;22.80;36.50;;;;;;1610882;73;711;-65
2021/01/17 08:26:42;;;;;;;;;;;22.80;36.50;;;;;;1574999;73;1937;-65
2021/01/17 08:28:44;;;;;;;;;;;22.80;36.30;;;;;;1566541;74;1115;-64
2021/01/17 08:30:46;;;;;;;;;;;22.80;36.20;;;;;;1590431;73;671;-64
2021/01/17 08:32:51;;;;;;;;;;;22.90;36.30;;;;;;1598320;73;731;-65
2021/01/17 08:34:53;;;;;;;;;;;22.80;36.30;;;;;;1579603;73;685;-64
2021/01/17 08:36:55;;;;;;;;;;;22.90;36.40;;;;;;1583453;73;1152;-64
2021/01/17 08:38:57;;;;;;;;;;;22.90;36.30;;;;;;1597328;73;716;-66
2021/01/17 08:40:59;;;;;;;;;;;22.90;36.30;;;;;;1597057;73;763;-64
2021/01/17 08:43:01;;;;;;;;;;;23.00;36.40;;;;;;1604281;73;656;-65
2021/01/17 08:45:04;;;;;;;;;;;23.00;36.20;;;;;;1626114;72;552;-65
2021/01/17 08:47:07;;;;;;;;;;;23.00;36.30;;;;;;1610805;72;1934;-68
2021/01/17 08:49:09;;;;;;;;;;;23.00;36.30;;;;;;1622414;72;1906;-67
2021/01/17 08:51:16;;;;;;;;;;;23.00;36.20;;;;;;1624147;72;784;-65
2021/01/17 08:53:25;;;;;;;;;;;23.10;35.80;;;;;;1626044;72;688;-66
2021/01/17 08:55:47;;;;;;;;;;;23.20;35.50;;;;;;1619891;73;738;-64
2021/01/17 08:57:49;;;;;;;;;;;23.20;35.50;;;;;;1625872;72;1128;-63
2021/01/17 08:59:51;;;;;;;;;;;23.20;35.20;;;;;;1626553;72;769;-65
2021/01/17 09:02:03;;;;;;;;;;;23.10;35.90;;;;;;1625371;72;745;-64
2021/01/17 09:04:05;;;;;;;;;;;23.10;35.50;;;;;;1625348;72;1344;-63
2021/01/17 09:06:08;;;;;;;;;;;23.20;35.90;;;;;;1620314;72;1915;-65
2021/01/17 09:08:09;;;;;;;;;;;23.20;35.90;;;;;;1622618;72;1168;-64
2021/01/17 09:10:16;;;;;;;;;;;23.20;35.90;;;;;;1622554;72;697;-66
2021/01/17 09:12:17;;;;;;;;;;;23.10;36.00;;;;;;1624691;72;753;-63
2021/01/17 09:14:20;;;;;;;;;;;23.10;35.90;;;;;;1625461;72;637;-65
2021/01/17 09:16:22;;;;;;;;;;;23.10;35.90;;;;;;1622971;72;1137;-63
2021/01/17 09:18:25;;;;;;;;;;;23.10;35.90;;;;;;1624173;72;625;-65
2021/01/17 09:20:27;;;;;;;;;;;23.10;36.10;;;;;;1623933;72;719;-67
2021/01/17 09:22:29;;;;;;;;;;;23.10;36.00;;;;;;1627936;72;667;-64
2021/01/17 09:24:31;;;;;;;;;;;23.20;35.90;;;;;;1624296;72;764;-62
2021/01/17 09:26:33;;;;;;;;;;;23.30;35.80;;;;;;1623619;72;1936;-63
2021/01/17 09:28:35;;;;;;;;;;;23.20;35.60;;;;;;1624747;72;694;-65
2021/01/17 09:30:37;;;;;;;;;;;23.30;35.40;;;;;;1623279;72;722;-64
2021/01/17 09:32:39;;;;;;;;;;;23.60;35.90;;;;;;1624202;73;690;-63
2021/01/17 09:34:41;;;;;;;;;;;23.60;35.80;;;;;;1621642;72;780;-66
2021/01/17 09:36:43;;;;;;;;;;;23.80;35.70;;;;;;1629438;72;1122;-74
2021/01/17 09:38:45;;;;;;;;;;;23.90;35.70;;;;;;1626304;72;725;-66
2021/01/17 09:40:47;;;;;;;;;;;24.00;35.20;;;;;;1631445;72;781;-66
2021/01/17 09:42:49;;;;;;;;;;;24.00;35.30;;;;;;1623550;72;789;-67
2021/01/17 09:44:52;;;;;;;;;;;24.10;35.50;;;;;;1625904;72;765;-66
2021/01/17 09:46:54;;;;;;;;;;;24.20;35.00;;;;;;1625858;72;1935;-64
2021/01/17 09:48:59;;;;;;;;;;;24.10;34.70;;;;;;1622210;72;716;-65
2021/01/17 09:51:03;;;;;;;;;;;24.00;34.60;;;;;;1626352;72;685;-63
2021/01/17 09:53:08;;;;;;;;;;;24.00;34.40;;;;;;1594694;73;968;-63
2021/01/17 09:55:10;;;;;;;;;;;23.90;34.10;;;;;;1567081;74;764;-64
2021/01/17 09:57:15;;;;;;;;;;;23.90;34.10;;;;;;1557987;74;1116;-66
2021/01/17 09:59:18;;;;;;;;;;;23.90;34.00;;;;;;1607079;73;742;-65
2021/01/17 10:01:20;;;;;;;;;;;23.80;33.90;;;;;;1611938;73;1056;-66
2021/01/17 10:03:22;;;;;;;;;;;23.70;34.00;;;;;;1606482;73;682;-66
2021/01/17 10:05:27;;;;;;;;;;;23.70;34.00;;;;;;1610161;73;802;-65
2021/01/17 10:07:29;;;;;;;;;;;23.60;33.90;;;;;;1606156;73;1920;-65
2021/01/17 10:09:31;;;;;;;;;;;23.60;33.90;;;;;;1607209;73;696;-67
2021/01/17 10:11:33;;;;;;;;;;;23.60;33.70;;;;;;1606822;73;698;-66
2021/01/17 10:13:35;;;;;;;;;;;23.60;33.60;;;;;;1610424;73;655;-66
2021/01/17 10:15:37;;;;;;;;;;;23.60;33.60;;;;;;1602948;73;787;-67
2021/01/17 10:17:45;;;;;;;;;;;23.70;33.60;;;;;;1607049;73;1143;-66
2021/01/17 10:19:47;;;;;;;;;;;23.70;33.60;;;;;;1606198;73;784;-66
2021/01/17 10:21:49;;;;;;;;;;;23.60;33.50;;;;;;1608978;73;799;-66
2021/01/17 10:23:51;;;;;;;;;;;23.60;33.60;;;;;;1609589;73;735;-67
2021/01/17 10:25:53;;;;;;;;;;;23.50;33.60;;;;;;1606303;73;757;-66
2021/01/17 10:28:00;;;;;;;;;;;23.50;33.60;;;;;;1610096;74;1940;-65
2021/01/17 10:30:01;;;;;;;;;;;23.50;33.80;;;;;;1603716;73;2195;-66
2021/01/17 10:32:08;;;;;;;;;;;23.40;33.70;;;;;;1597533;73;691;-65
2021/01/17 10:34:10;;;;;;;;;;;23.40;33.80;;;;;;1601246;73;812;-64
2021/01/17 10:36:12;;;;;;;;;;;23.50;34.00;;;;;;1595396;73;782;-65
2021/01/17 10:38:14;;;;;;;;;;;23.40;34.30;;;;;;1597927;73;1155;-71
2021/01/17 10:40:16;;;;;;;;;;;23.30;34.70;;;;;;1605671;73;672;-71
2021/01/17 10:42:19;;;;;;;;;;;23.20;35.00;;;;;;1608380;73;679;-70
2021/01/17 10:44:23;;;;;;;;;;;23.20;35.30;;;;;;1609514;73;678;-66
2021/01/17 10:46:25;;;;;;;;;;;23.20;35.40;;;;;;1609960;73;1933;-69
2021/01/17 10:48:27;;;;;;;;;;;23.20;35.30;;;;;;1603965;74;778;-71
2021/01/17 10:50:29;;;;;;;;;;;23.20;35.40;;;;;;1594077;73;727;-70
2021/01/17 10:52:31;;;;;;;;;;;23.30;35.20;;;;;;1604383;74;690;-70
2021/01/17 10:54:33;;;;;;;;;;;23.20;35.20;;;;;;1607476;73;731;-71
2021/01/17 10:56:35;;;;;;;;;;;23.30;35.20;;;;;;1594001;73;1149;-68
2021/01/17 10:58:40;;;;;;;;;;;23.30;35.30;;;;;;1593790;73;741;-66
2021/01/17 11:00:52;;;;;;;;;;;23.30;35.20;;;;;;1606210;73;736;-65
2021/01/17 11:03:01;;;;;;;;;;;23.40;35.00;;;;;;1605068;73;794;-64
2021/01/17 11:05:06;;;;;;;;;;;23.40;34.70;;;;;;1600998;73;1346;-64
2021/01/17 11:07:07;;;;;;;;;;;23.40;35.40;;;;;;1602552;73;1938;-64
2021/01/17 11:09:14;;;;;;;;;;;23.40;35.50;;;;;;1597795;73;886;-63
2021/01/17 11:11:16;;;;;;;;;;;23.30;35.40;;;;;;1605492;73;998;-63
2021/01/17 11:13:18;;;;;;;;;;;23.20;35.20;;;;;;1610997;73;699;-64
2021/01/17 11:15:20;;;;;;;;;;;23.20;35.30;;;;;;1601002;74;687;-65
2021/01/17 11:17:22;;;;;;;;;;;23.20;35.20;;;;;;1600862;73;1162;-67
2021/01/17 11:19:34;;;;;;;;;;;23.30;35.20;;;;;;1625642;72;739;-66
2021/01/17 11:21:36;;;;;;;;;;;23.30;35.20;;;;;;1626027;72;757;-68
2021/01/17 11:23:38;;;;;;;;;;;23.30;35.20;;;;;;1620453;72;714;-66
2021/01/17 11:25:39;;;;;;;;;;;23.30;35.10;;;;;;1620593;73;690;-65
2021/01/17 11:27:41;;;;;;;;;;;23.40;35.00;;;;;;1606983;72;1939;-65
2021/01/17 11:29:43;;;;;;;;;;;23.40;34.70;;;;;;1628048;73;693;-67
2021/01/17 11:31:46;;;;;;;;;;;23.40;34.40;;;;;;1626935;72;840;-66
2021/01/17 11:33:48;;;;;;;;;;;23.40;34.40;;;;;;1628178;72;774;-65
2021/01/17 11:35:50;;;;;;;;;;;23.40;34.70;;;;;;1619282;73;728;-65
2021/01/17 11:37:52;;;;;;;;;;;23.30;34.80;;;;;;1615261;72;1176;-65
2021/01/17 11:39:55;;;;;;;;;;;23.40;34.20;;;;;;1608174;72;784;-65
2021/01/17 11:41:57;;;;;;;;;;;23.30;33.20;;;;;;1603657;72;1819;-64
2021/01/17 11:44:07;;;;;;;;;;;23.40;32.60;;;;;;1621167;72;761;-65
2021/01/17 11:46:09;;;;;;;;;;;23.40;32.30;;;;;;1605214;72;1678;-65
2021/01/17 11:48:11;;;;;;;;;;;23.40;32.00;;;;;;1627987;72;1928;-65
2021/01/17 11:50:14;;;;;;;;;;;23.30;31.70;;;;;;1616594;72;725;-65
2021/01/17 11:52:16;;;;;;;;;;;23.20;31.30;;;;;;1625516;72;786;-65
2021/01/17 11:54:21;;;;;;;;;;;23.30;30.80;;;;;;1627071;72;708;-65
2021/01/17 11:56:25;;;;;;;;;;;23.20;30.30;;;;;;1613770;72;1135;-67
2021/01/17 11:58:27;;;;;;;;;;;23.20;30.00;;;;;;1626026;72;1808;-67
2021/01/17 12:00:29;;;;;;;;;;;23.10;29.80;;;;;;1605447;72;728;-66
2021/01/17 12:02:32;;;;;;;;;;;23.10;29.70;;;;;;1609563;72;743;-66
2021/01/17 12:04:34;;;;;;;;;;;23.10;29.60;;;;;;1618816;72;1133;-67
2021/01/17 12:06:36;;;;;;;;;;;23.00;29.20;;;;;;1628074;72;1392;-67
2021/01/17 12:08:57;;;;;;;;;;;23.00;29.20;;;;;;1624030;72;1939;-67
2021/01/17 12:10:59;;;;;;;;;;;23.00;29.20;;;;;;1624474;72;792;-67
2021/01/17 12:13:01;;;;;;;;;;;22.90;29.00;;;;;;1643452;72;702;-66
2021/01/17 12:15:07;;;;;;;;;;;22.90;29.00;;;;;;1618393;72;666;-66